St. Elmo — WDG2405 — position and weather

sailwx.info

Track history (hours):
 
Tides and Currents Weather Stations Pressure Air Temp Water Temp Dewpoint Dewpoint Depression Visibility Wind Speed Wind Dir Waves Ship Positions

St. Elmo

Owner: Marquette Transportation Company Gulf-Inland, LLC, Jefferson, LA. More information available from US FCC via Universal Licensing System and Coast Guard Vessel Documentation Center.

Last reported at 2016-May-29 19:16 UTC. Time now 2016-May-31 00:11 UTC.
Position N 29°46' W 095°05'.

; draft 3.2 m.

MMSI: 367515330.

Date/timePositionNaut miles runAvg speedWind from/ knotsBaromVisibWave heightAir tempDewpointWater temp
2016-May-29 19:16N 29°46' W 095°05'0 0.0
2016-May-29 14:12N 29°46' W 095°05'0 0.7
2016-May-29 13:33N 29°46' W 095°05'0 0.0
2016-May-29 12:33N 29°46' W 095°05'0 0.0
2016-May-29 11:34N 29°46' W 095°05'0 0.0
2016-May-29 10:32N 29°46' W 095°05'0 0.0
2016-May-29 09:33N 29°46' W 095°05'1 0.1
2016-May-28 16:21N 29°46' W 095°04'5 6.2
2016-May-28 15:33N 29°42' W 095°01'6 6.3
2016-May-28 14:34N 29°37' W 094°57'17 2.4
2016-May-28 07:32N 29°25' W 094°43'0 0.0
2016-May-26 09:18N 29°25' W 094°43'  
Track history (hours):
 
Tides and Currents Weather Stations Pressure Air Temp Water Temp Dewpoint Dewpoint Depression Visibility Wind Speed Wind Dir Waves Ship Positions

St. Elmo

Owner: Marquette Transportation Company Gulf-Inland, LLC, Jefferson, LA. More information available from US FCC via Universal Licensing System and Coast Guard Vessel Documentation Center.

Last reported at 2016-May-29 19:16 UTC. Time now 2016-May-31 00:11 UTC.
Position N 29°46' W 095°05'.

; draft 3.2 m.

MMSI: 367515330.

Date/timePositionNaut miles runAvg speedWind from/ knotsBaromVisibWave heightAir tempDewpointWater temp
2016-May-29 19:16N 29°46' W 095°05'0 0.0
2016-May-29 14:12N 29°46' W 095°05'0 0.7
2016-May-29 13:33N 29°46' W 095°05'0 0.0
2016-May-29 12:33N 29°46' W 095°05'0 0.0
2016-May-29 11:34N 29°46' W 095°05'0 0.0
2016-May-29 10:32N 29°46' W 095°05'0 0.0
2016-May-29 09:33N 29°46' W 095°05'1 0.1
2016-May-28 16:21N 29°46' W 095°04'5 6.2
2016-May-28 15:33N 29°42' W 095°01'6 6.3
2016-May-28 14:34N 29°37' W 094°57'17 2.4
2016-May-28 07:32N 29°25' W 094°43'0 0.0
2016-May-26 09:18N 29°25' W 094°43'  

Dump ship's entire track history